Bookmark and Share
Track history (hours):
 

El-djazair II

Last reported at 2014-Apr-20 00:19 UTC. Time now 2014-Apr-20 00:45 UTC.
Position N 39°06' E 003°33'.

Length 146 m; draft 6.3 m.

Type: Passenger vessel. MMSI: 605026190.

NotesDate/timePositionNaut miles runAvg speedWind from/ knotsBaromVisibWave heightAir tempDewpointWater temp
2014-Apr-20 00:19N 39°06' E 003°33'1920.9
2014-Apr-19 23:25N 39°25' E 003°34'2020.7
2014-Apr-19 22:26N 39°45' E 003°37'5021.5
2014-Apr-19 20:06N 40°34' E 003°53'2021.7
2014-Apr-19 19:10N 40°54' E 004°00'1220.6
2014-Apr-19 18:33N 41°06' E 004°05'2221.9
2014-Apr-19 17:34N 41°27' E 004°13'2222.4
2014-Apr-19 16:33N 41°48' E 004°21'2221.6
2014-Apr-19 15:34N 42°09' E 004°29'2222.0
2014-Apr-19 14:34N 42°30' E 004°37'2322.3
2014-Apr-19 13:30N 42°53' E 004°46'2021.3
2014-Apr-19 12:33N 43°08' E 005°05'1615.9
2014-Apr-19 11:32N 43°18' E 005°22'0 0.0
2014-Apr-19 10:31N 43°18' E 005°22'0 0.0
2014-Apr-19 09:31N 43°18' E 005°22'0 0.0
2014-Apr-19 08:28N 43°18' E 005°22'0 0.0
2014-Apr-19 07:31N 43°18' E 005°22'0 0.0
2014-Apr-19 06:31N 43°18' E 005°22'0 0.0
2014-Apr-19 05:28N 43°18' E 005°22'0 0.0
2014-Apr-19 04:31N 43°18' E 005°22'0 0.0
2014-Apr-19 03:31N 43°18' E 005°22'0 0.0
2014-Apr-19 02:31N 43°18' E 005°22'0 0.0
2014-Apr-19 01:22N 43°18' E 005°22'0 0.0
2014-Apr-19 00:31N 43°18' E 005°22'0 0.0
2014-Apr-18 23:28N 43°18' E 005°22'0 0.0
2014-Apr-18 22:22N 43°18' E 005°22'0 0.0
2014-Apr-18 21:31N 43°18' E 005°22'0 0.0
2014-Apr-18 20:31N 43°18' E 005°22'0 0.0
2014-Apr-18 19:31N 43°18' E 005°22'0 0.0
2014-Apr-18 18:28N 43°18' E 005°22'0 0.0
2014-Apr-18 17:31N 43°18' E 005°22'0 0.0
2014-Apr-18 16:31N 43°18' E 005°22'0 0.0
2014-Apr-18 15:28N 43°18' E 005°22'0 0.0
2014-Apr-18 14:28N 43°18' E 005°22'0 0.0
2014-Apr-18 12:31N 43°18' E 005°22'0 0.5
2014-Apr-18 11:34N 43°18' E 005°21'1919.1
2014-Apr-18 10:33N 43°02' E 005°06'2423.5
2014-Apr-18 09:33N 42°42' E 004°49'2121.5
2014-Apr-18 08:33N 42°24' E 004°34'2423.6
2014-Apr-18 07:33N 42°04' E 004°16'2322.2
2014-Apr-18 06:32N 41°45' E 004°00'2222.7
2014-Apr-18 05:33N 41°26' E 003°45'2323.3
2014-Apr-18 04:33N 41°06' E 003°29'2221.9
2014-Apr-18 03:33N 40°48' E 003°13'2322.5
2014-Apr-18 02:33N 40°29' E 002°57'2120.7
2014-Apr-18 01:34N 40°11' E 002°42'2423.9
2014-Apr-18 00:33N 39°52' E 002°25'2323.0
2014-Apr-17 23:33N 39°32' E 002°09'2221.8
2014-Apr-17 22:33N 39°11' E 001°60'2424.1
2014-Apr-17 21:33N 38°49' E 001°49'2221.9
2014-Apr-17 20:33N 38°30' E 001°35'3123.8
2014-Apr-17 19:15N 38°04' E 001°13'3923.1
2014-Apr-17 17:33N 37°31' E 000°47'4522.0
2014-Apr-17 15:31N 36°53' E 000°18'57 1.5
2014-Apr-16 00:31N 37°38' W 000°25'2422.2
2014-Apr-15 23:26N 38°02' W 000°23'21 1.0
2014-Apr-15 02:33N 37°43' W 000°12'70 1.5
2014-Apr-13 02:33N 38°04' E 001°13'2322.7
2014-Apr-13 01:33N 38°23' E 001°28'2322.8
2014-Apr-13 00:33N 38°43' E 001°43'2322.6
2014-Apr-12 23:33N 39°04' E 001°55'2322.5
2014-Apr-12 22:33N 39°25' E 002°06'2322.5
2014-Apr-12 21:33N 39°45' E 002°19'2322.7
2014-Apr-12 20:33N 40°04' E 002°35'2423.6
2014-Apr-12 19:33N 40°23' E 002°52'2221.5
2014-Apr-12 18:33N 40°41' E 003°07'2322.6
2014-Apr-12 17:33N 41°00' E 003°24'2423.5
2014-Apr-12 16:33N 41°20' E 003°41'2622.7
2014-Apr-12 15:26N 41°42' E 003°59'2023.3
2014-Apr-12 14:33N 41°59' E 004°13'2221.9
2014-Apr-12 13:32N 42°18' E 004°29'2424.0
2014-Apr-12 12:34N 42°38' E 004°46'2323.0
2014-Apr-12 11:33N 42°57' E 005°03'2121.4
2014-Apr-12 10:33N 43°15' E 005°19'4 3.5
2014-Apr-12 09:31N 43°18' E 005°22'0 0.0
2014-Apr-12 07:28N 43°18' E 005°22'0 0.0
2014-Apr-12 06:31N 43°18' E 005°22'0 0.0
2014-Apr-12 05:25N 43°18' E 005°22'0 0.0
2014-Apr-12 04:31N 43°18' E 005°22'0 0.0
2014-Apr-12 02:31N 43°18' E 005°22'0 0.0
2014-Apr-12 01:31N 43°18' E 005°22'0 0.0
2014-Apr-12 00:31N 43°18' E 005°22'0 0.0
2014-Apr-11 23:31N 43°18' E 005°22'0 0.0
2014-Apr-11 21:31N 43°18' E 005°22'0 0.0
2014-Apr-11 20:31N 43°18' E 005°22'0 0.0
2014-Apr-11 19:31N 43°18' E 005°22'0 0.0
2014-Apr-11 18:31N 43°18' E 005°22'0 0.0
2014-Apr-11 17:21N 43°18' E 005°22'0 0.0
2014-Apr-11 16:33N 43°18' E 005°22'0 0.0
2014-Apr-11 15:34N 43°18' E 005°22'0 0.0
2014-Apr-11 14:33N 43°18' E 005°22'0 0.0
2014-Apr-11 13:33N 43°18' E 005°22'1 0.8
2014-Apr-11 12:33N 43°18' E 005°21'2121.1
2014-Apr-11 11:33N 43°01' E 005°03'2522.3
2014-Apr-11 10:27N 42°41' E 004°44'2022.2
2014-Apr-11 09:33N 42°24' E 004°28'2421.7
2014-Apr-11 08:25N 42°05' E 004°08'2124.2
2014-Apr-11 07:33N 41°48' E 003°51'2322.6
2014-Apr-11 06:31N 41°29' E 003°33'2222.5
2014-Apr-11 05:32N 41°11' E 003°15'2222.4
2014-Apr-11 04:33N 40°54' E 002°57'2222.2
2014-Apr-11 03:33N 40°36' E 002°40'2322.9
2014-Apr-11 02:33N 40°18' E 002°21'2322.7
2014-Apr-11 01:33N 40°00' E 002°03'2322.8
2014-Apr-11 00:32N 39°41' E 001°46'7922.9
2014-Apr-10 21:06N 38°34' E 000°53'1221.9
2014-Apr-10 20:34N 38°23' E 000°47'2722.9
2014-Apr-10 19:23N 37°59' E 000°33'2122.7
2014-Apr-10 18:29N 37°40' E 000°23'  

Dump ship's entire track history

sailing weather and tide predictions

El-djazair II — 7TBR — position and weather